Time;durP1;ratioP1;P1;durP2;ratioP2;P2;SDS_P1;SDS_P2;PMS_P1;PMS_P2;Temp;Humidity;BMP_temperature;BMP_pressure;BME280_temperature;BME280_humidity;BME280_pressure;Samples;Min_cycle;Max_cycle;Signal;HPM_P1;HPM_P2
2022/03/06 00:01:21;;;;;;;23.75;10.40;;;;;;;;;;5035907;28;20092;-72
2022/03/06 00:03:48;;;;;;;30.17;9.90;;;;;;;;;;5035646;28;20060;-72
2022/03/06 00:06:14;;;;;;;26.15;11.70;;;;;;;;;;5035719;28;20026;-73
2022/03/06 00:08:41;;;;;;;24.75;11.45;;;;;;;;;;5034473;28;20047;-72
2022/03/06 00:11:08;;;;;;;28.77;10.55;;;;;;;;;;5035709;28;20026;-72
2022/03/06 00:13:35;;;;;;;26.33;11.65;;;;;;;;;;5034622;28;20148;-72
2022/03/06 00:16:01;;;;;;;32.35;17.40;;;;;;;;;;5035594;28;20053;-72
2022/03/06 00:18:28;;;;;;;36.30;18.42;;;;;;;;;;5045990;28;20036;-72
2022/03/06 00:20:55;;;;;;;40.03;18.25;;;;;;;;;;5054976;28;20057;-72
2022/03/06 00:23:23;;;;;;;29.70;14.05;;;;;;;;;;5054944;28;20537;-72
2022/03/06 00:25:49;;;;;;;28.63;15.02;;;;;;;;;;5040112;28;20025;-72
2022/03/06 00:28:15;;;;;;;34.53;14.68;;;;;;;;;;5059333;28;20498;-72
2022/03/06 00:30:42;;;;;;;28.42;14.05;;;;;;;;;;5058470;28;20467;-73
2022/03/06 00:33:08;;;;;;;37.63;15.93;;;;;;;;;;5038644;28;20032;-72
2022/03/06 00:35:35;;;;;;;30.27;14.77;;;;;;;;;;5037622;28;20029;-73
2022/03/06 00:38:01;;;;;;;36.13;11.43;;;;;;;;;;5036677;28;20479;-73
2022/03/06 00:40:27;;;;;;;25.40;10.82;;;;;;;;;;5055024;28;20021;-73
2022/03/06 00:42:54;;;;;;;28.65;7.60;;;;;;;;;;5055001;28;20057;-72
2022/03/06 00:45:20;;;;;;;23.15;8.27;;;;;;;;;;5054067;28;20025;-73
2022/03/06 00:47:46;;;;;;;26.15;8.68;;;;;;;;;;5055034;28;20108;-73
2022/03/06 00:50:13;;;;;;;22.75;7.30;;;;;;;;;;5055280;28;20031;-73
2022/03/06 00:52:39;;;;;;;28.05;8.45;;;;;;;;;;5036920;28;20029;-72
2022/03/06 00:55:06;;;;;;;26.83;7.60;;;;;;;;;;5036950;28;20032;-72
2022/03/06 00:57:32;;;;;;;16.25;5.85;;;;;;;;;;5055594;28;20036;-72
2022/03/06 00:59:59;;;;;;;25.15;5.85;;;;;;;;;;5055195;28;20394;-73
2022/03/06 01:02:25;;;;;;;21.20;6.90;;;;;;;;;;5048564;28;20025;-72
2022/03/06 01:04:52;;;;;;;21.88;6.22;;;;;;;;;;5074084;28;20041;-73
2022/03/06 01:07:18;;;;;;;27.52;7.13;;;;;;;;;;5054255;28;20017;-72
2022/03/06 01:09:44;;;;;;;27.40;6.47;;;;;;;;;;5045047;28;20479;-72
2022/03/06 01:12:12;;;;;;;19.33;7.25;;;;;;;;;;5055131;28;20025;-72
2022/03/06 01:14:38;;;;;;;24.45;6.60;;;;;;;;;;5036854;28;20487;-72
2022/03/06 01:17:05;;;;;;;16.73;5.40;;;;;;;;;;5036504;28;20033;-72
2022/03/06 01:19:31;;;;;;;23.17;6.88;;;;;;;;;;5036421;28;20044;-72
2022/03/06 01:21:57;;;;;;;28.90;7.93;;;;;;;;;;5054429;28;20025;-71
2022/03/06 01:24:24;;;;;;;26.77;6.05;;;;;;;;;;5036598;28;20029;-72
2022/03/06 01:26:50;;;;;;;24.27;5.80;;;;;;;;;;5036385;28;20431;-72
2022/03/06 01:29:18;;;;;;;18.95;6.57;;;;;;;;;;5026016;28;20025;-73
2022/03/06 01:31:45;;;;;;;18.52;5.57;;;;;;;;;;5026806;28;20446;-72
2022/03/06 01:34:11;;;;;;;24.40;7.25;;;;;;;;;;5043099;28;20017;-72
2022/03/06 01:36:40;;;;;;;22.15;5.72;;;;;;;;;;5043547;28;20017;-72
2022/03/06 01:39:06;;;;;;;29.15;6.82;;;;;;;;;;5026986;28;20578;-72
2022/03/06 01:41:36;;;;;;;19.55;5.90;;;;;;;;;;5024048;28;20032;-72
2022/03/06 01:44:04;;;;;;;25.25;6.47;;;;;;;;;;5042909;28;20013;-72
2022/03/06 01:46:30;;;;;;;24.17;7.50;;;;;;;;;;5025219;28;20025;-72
2022/03/06 01:48:56;;;;;;;25.15;7.53;;;;;;;;;;5044306;28;20097;-72
2022/03/06 01:51:23;;;;;;;21.25;6.85;;;;;;;;;;5024662;28;20021;-72
2022/03/06 01:53:49;;;;;;;20.73;5.88;;;;;;;;;;5042970;28;20116;-72
2022/03/06 01:56:15;;;;;;;17.77;6.25;;;;;;;;;;5052687;28;20104;-72
2022/03/06 01:58:42;;;;;;;20.85;6.93;;;;;;;;;;5035702;28;20029;-72
2022/03/06 02:01:08;;;;;;;22.58;6.95;;;;;;;;;;5021760;28;20392;-72
2022/03/06 02:03:35;;;;;;;23.70;7.65;;;;;;;;;;5033720;28;20460;-73
2022/03/06 02:06:01;;;;;;;24.40;7.68;;;;;;;;;;5033795;28;20108;-72
2022/03/06 02:08:28;;;;;;;29.83;8.45;;;;;;;;;;5015792;28;20029;-72
2022/03/06 02:10:55;;;;;;;29.08;8.30;;;;;;;;;;5038031;28;20027;-72
2022/03/06 02:13:22;;;;;;;22.02;8.52;;;;;;;;;;5053168;28;20096;-73
2022/03/06 02:15:49;;;;;;;29.48;9.07;;;;;;;;;;5035339;28;20079;-72
2022/03/06 02:18:15;;;;;;;25.42;8.98;;;;;;;;;;5035312;28;20036;-72
2022/03/06 02:20:41;;;;;;;31.63;11.15;;;;;;;;;;5035223;28;20430;-73
2022/03/06 02:23:08;;;;;;;26.02;9.20;;;;;;;;;;5053098;28;20024;-73
2022/03/06 02:25:36;;;;;;;23.15;6.97;;;;;;;;;;5035178;28;20659;-72
2022/03/06 02:28:06;;;;;;;21.90;7.70;;;;;;;;;;5035243;28;20416;-73
2022/03/06 02:30:33;;;;;;;24.50;7.97;;;;;;;;;;5052977;28;20487;-72
2022/03/06 02:33:02;;;;;;;21.92;7.90;;;;;;;;;;5035125;28;20029;-72
2022/03/06 02:35:28;;;;;;;24.58;8.70;;;;;;;;;;5035122;28;20020;-73
2022/03/06 02:37:55;;;;;;;23.55;8.55;;;;;;;;;;5034818;28;20025;-72
2022/03/06 02:40:22;;;;;;;23.60;9.02;;;;;;;;;;5020613;28;20033;-72
2022/03/06 02:42:49;;;;;;;24.38;9.27;;;;;;;;;;5032996;28;20026;-73
2022/03/06 02:45:15;;;;;;;25.75;8.75;;;;;;;;;;5043947;28;20581;-72
2022/03/06 02:47:42;;;;;;;26.08;9.50;;;;;;;;;;5050289;28;20349;-72
2022/03/06 02:50:10;;;;;;;28.00;9.65;;;;;;;;;;5034146;28;20029;-72
2022/03/06 02:52:37;;;;;;;27.60;11.07;;;;;;;;;;5048687;28;20039;-72
2022/03/06 02:55:03;;;;;;;31.27;9.93;;;;;;;;;;5034668;28;20609;-72
2022/03/06 02:57:29;;;;;;;28.23;11.18;;;;;;;;;;5034565;28;20046;-72
2022/03/06 02:59:56;;;;;;;32.50;10.90;;;;;;;;;;5034440;28;20384;-73
2022/03/06 03:02:22;;;;;;;27.23;12.00;;;;;;;;;;5031582;28;20029;-71
2022/03/06 03:04:49;;;;;;;27.40;11.70;;;;;;;;;;5063838;28;20410;-72
2022/03/06 03:07:15;;;;;;;29.45;11.82;;;;;;;;;;5028692;28;20049;-71
2022/03/06 03:09:42;;;;;;;30.40;12.20;;;;;;;;;;5039394;28;20034;-72
2022/03/06 03:12:09;;;;;;;44.03;25.98;;;;;;;;;;5021030;28;20027;-71
2022/03/06 03:14:35;;;;;;;23.52;9.68;;;;;;;;;;5029927;28;20079;-72
2022/03/06 03:17:03;;;;;;;32.13;11.90;;;;;;;;;;5036728;28;20032;-72
2022/03/06 03:19:29;;;;;;;31.17;12.18;;;;;;;;;;5040341;28;20072;-71
2022/03/06 03:21:56;;;;;;;27.35;10.32;;;;;;;;;;5035149;28;20395;-72
2022/03/06 03:24:23;;;;;;;28.92;10.15;;;;;;;;;;5030532;28;20427;-72
2022/03/06 03:26:49;;;;;;;30.98;11.50;;;;;;;;;;5049277;28;20092;-72
2022/03/06 03:29:16;;;;;;;40.17;12.18;;;;;;;;;;5047030;28;20487;-72
2022/03/06 03:31:42;;;;;;;33.22;12.07;;;;;;;;;;5030043;28;20029;-72
2022/03/06 03:34:09;;;;;;;34.78;10.95;;;;;;;;;;5047904;28;20018;-73
2022/03/06 03:36:35;;;;;;;38.53;12.65;;;;;;;;;;5048279;28;20017;-72
2022/03/06 03:39:01;;;;;;;36.60;12.70;;;;;;;;;;5029536;28;20107;-72
2022/03/06 03:41:28;;;;;;;32.42;13.48;;;;;;;;;;5031681;28;20025;-71
2022/03/06 03:43:54;;;;;;;30.00;13.25;;;;;;;;;;5027232;28;20022;-71
2022/03/06 03:46:23;;;;;;;38.05;13.82;;;;;;;;;;5024621;28;20021;-72
2022/03/06 03:48:52;;;;;;;33.70;12.30;;;;;;;;;;5052193;28;20032;-72
2022/03/06 03:51:19;;;;;;;33.00;11.63;;;;;;;;;;5030655;28;20479;-72
2022/03/06 03:53:45;;;;;;;34.40;11.90;;;;;;;;;;5040819;28;20045;-71
2022/03/06 03:56:11;;;;;;;30.48;12.70;;;;;;;;;;5031181;28;20110;-71
2022/03/06 03:58:38;;;;;;;29.35;13.02;;;;;;;;;;5022949;28;20029;-72
2022/03/06 04:01:04;;;;;;;38.17;14.88;;;;;;;;;;5041405;28;20196;-72
2022/03/06 04:03:30;;;;;;;37.55;15.27;;;;;;;;;;5031307;28;20021;-72
2022/03/06 04:05:57;;;;;;;40.58;15.63;;;;;;;;;;5030116;28;20032;-71
2022/03/06 04:08:23;;;;;;;41.72;16.33;;;;;;;;;;5029315;28;20033;-72
2022/03/06 04:10:50;;;;;;;43.80;16.20;;;;;;;;;;5028379;28;20029;-72
2022/03/06 04:13:17;;;;;;;36.45;16.38;;;;;;;;;;5045047;28;20474;-72
2022/03/06 04:15:45;;;;;;;34.40;15.68;;;;;;;;;;5052580;28;20028;-72
2022/03/06 04:18:11;;;;;;;38.28;16.35;;;;;;;;;;5029151;28;20025;-72
2022/03/06 04:20:37;;;;;;;40.92;16.60;;;;;;;;;;5046413;28;20251;-72
2022/03/06 04:23:04;;;;;;;41.75;17.25;;;;;;;;;;5029064;28;20530;-72
2022/03/06 04:25:30;;;;;;;34.78;16.05;;;;;;;;;;5034300;28;20029;-72
2022/03/06 04:27:56;;;;;;;36.67;16.67;;;;;;;;;;5037483;28;20029;-72
2022/03/06 04:30:23;;;;;;;35.53;16.67;;;;;;;;;;5053314;28;20049;-72
2022/03/06 04:32:49;;;;;;;40.20;16.15;;;;;;;;;;5075110;28;20056;-71
2022/03/06 04:35:15;;;;;;;40.90;17.38;;;;;;;;;;5057085;28;20028;-72
2022/03/06 04:37:41;;;;;;;32.53;14.50;;;;;;;;;;5046768;28;20021;-72
2022/03/06 04:40:08;;;;;;;25.35;12.77;;;;;;;;;;5045450;28;20040;-72
2022/03/06 04:42:35;;;;;;;33.35;13.30;;;;;;;;;;5045526;28;20029;-71
2022/03/06 04:45:01;;;;;;;32.15;12.77;;;;;;;;;;5042606;28;20384;-72
2022/03/06 04:47:27;;;;;;;29.65;12.40;;;;;;;;;;5055430;28;20475;-71
2022/03/06 04:49:54;;;;;;;30.48;12.02;;;;;;;;;;5051609;28;20029;-72
2022/03/06 04:52:20;;;;;;;34.50;13.32;;;;;;;;;;5026522;28;20026;-72
2022/03/06 04:54:46;;;;;;;30.63;11.77;;;;;;;;;;5028441;28;20017;-72
2022/03/06 04:57:14;;;;;;;32.92;10.57;;;;;;;;;;5072383;28;20039;-72
2022/03/06 04:59:40;;;;;;;29.10;8.98;;;;;;;;;;5074729;28;20028;-71
2022/03/06 05:02:06;;;;;;;25.02;10.25;;;;;;;;;;5056657;28;20494;-71
2022/03/06 05:04:33;;;;;;;24.45;9.18;;;;;;;;;;5074655;28;20036;-72
2022/03/06 05:06:59;;;;;;;28.77;9.43;;;;;;;;;;5053233;28;20021;-72
2022/03/06 05:09:25;;;;;;;24.45;8.60;;;;;;;;;;5053258;28;20032;-72
2022/03/06 05:11:51;;;;;;;28.50;8.32;;;;;;;;;;5056380;28;20439;-72
2022/03/06 05:14:18;;;;;;;28.10;9.80;;;;;;;;;;5056424;28;20025;-72
2022/03/06 05:32:03;;;;;;;28.25;8.43;;;;;;;;;;5053879;28;20040;-72
2022/03/06 05:34:31;;;;;;;25.73;8.80;;;;;;;;;;5054056;28;20021;-72
2022/03/06 05:36:57;;;;;;;34.63;8.48;;;;;;;;;;5028381;28;20034;-72
2022/03/06 05:39:23;;;;;;;26.35;7.75;;;;;;;;;;5053726;28;20506;-72
2022/03/06 05:41:50;;;;;;;24.48;8.23;;;;;;;;;;5031664;28;20553;-72
2022/03/06 05:44:16;;;;;;;32.90;7.82;;;;;;;;;;5023350;28;20486;-72
2022/03/06 05:46:42;;;;;;;24.65;7.97;;;;;;;;;;5044280;28;20040;-72
2022/03/06 05:49:12;;;;;;;34.25;8.35;;;;;;;;;;5032857;28;20036;-75
2022/03/06 05:51:39;;;;;;;30.67;7.40;;;;;;;;;;5036675;28;20021;-71
2022/03/06 05:54:07;;;;;;;23.95;6.93;;;;;;;;;;5037621;28;20067;-72
2022/03/06 05:56:33;;;;;;;29.63;7.00;;;;;;;;;;5051656;28;20466;-72
2022/03/06 05:59:00;;;;;;;28.65;7.45;;;;;;;;;;5053050;28;20139;-72
2022/03/06 06:01:29;;;;;;;35.08;7.40;;;;;;;;;;5053057;28;20071;-72
2022/03/06 06:03:56;;;;;;;34.42;7.85;;;;;;;;;;5035481;28;20021;-72
2022/03/06 06:06:22;;;;;;;34.03;8.23;;;;;;;;;;5053434;28;20104;-71
2022/03/06 06:08:49;;;;;;;34.33;8.02;;;;;;;;;;5031776;28;20475;-72
2022/03/06 06:11:15;;;;;;;34.97;7.75;;;;;;;;;;5052795;28;20104;-72
2022/03/06 06:13:41;;;;;;;47.38;10.38;;;;;;;;;;5052786;28;20097;-72
2022/03/06 06:16:07;;;;;;;27.50;8.25;;;;;;;;;;5034984;28;20025;-73
2022/03/06 06:18:34;;;;;;;36.30;8.65;;;;;;;;;;5049967;28;20029;-73
2022/03/06 06:21:00;;;;;;;40.00;8.07;;;;;;;;;;5024217;28;20387;-71
2022/03/06 06:23:26;;;;;;;32.53;7.57;;;;;;;;;;5024031;28;20056;-72
2022/03/06 06:25:53;;;;;;;34.30;8.38;;;;;;;;;;5024693;28;20029;-72
2022/03/06 06:28:19;;;;;;;33.50;7.88;;;;;;;;;;5039850;28;20021;-72
2022/03/06 06:30:45;;;;;;;34.20;8.75;;;;;;;;;;5042410;28;20152;-71
2022/03/06 06:33:12;;;;;;;37.67;11.93;;;;;;;;;;5043743;28;20025;-72
2022/03/06 06:35:38;;;;;;;33.97;10.15;;;;;;;;;;5045324;28;20107;-72
2022/03/06 06:38:05;;;;;;;37.47;10.32;;;;;;;;;;5047407;28;20029;-72
2022/03/06 06:40:31;;;;;;;36.05;9.70;;;;;;;;;;5025035;28;20029;-71
2022/03/06 06:42:58;;;;;;;72.50;15.77;;;;;;;;;;5024225;28;20490;-71
2022/03/06 06:45:24;;;;;;;50.85;13.05;;;;;;;;;;5024250;28;20040;-72
2022/03/06 06:47:51;;;;;;;48.28;12.73;;;;;;;;;;5044020;28;20025;-72
2022/03/06 06:50:17;;;;;;;54.40;13.00;;;;;;;;;;5047816;28;20025;-72
2022/03/06 06:52:43;;;;;;;50.10;13.68;;;;;;;;;;5038643;28;20464;-72
2022/03/06 06:55:10;;;;;;;42.72;11.60;;;;;;;;;;5020330;28;20056;-72
2022/03/06 06:57:37;;;;;;;51.55;12.57;;;;;;;;;;5024954;28;20053;-72
2022/03/06 07:00:04;;;;;;;44.13;12.20;;;;;;;;;;5028641;28;20029;-72
2022/03/06 07:02:30;;;;;;;37.40;9.18;;;;;;;;;;5044395;28;20053;-72
2022/03/06 07:04:56;;;;;;;50.65;11.88;;;;;;;;;;5025480;28;20435;-73
2022/03/06 07:07:24;;;;;;;54.42;12.80;;;;;;;;;;5052952;28;20090;-73
2022/03/06 07:09:50;;;;;;;38.38;10.30;;;;;;;;;;5042553;28;20024;-73
2022/03/06 07:12:16;;;;;;;45.35;9.98;;;;;;;;;;5042118;28;20040;-73
2022/03/06 07:14:42;;;;;;;30.40;9.05;;;;;;;;;;5050455;28;20048;-71
2022/03/06 07:17:09;;;;;;;26.98;5.90;;;;;;;;;;5043662;28;20467;-72
2022/03/06 07:19:35;;;;;;;32.67;7.68;;;;;;;;;;5040665;28;20475;-72
2022/03/06 07:22:01;;;;;;;23.45;6.50;;;;;;;;;;5025120;28;20028;-72
2022/03/06 07:24:28;;;;;;;36.13;6.85;;;;;;;;;;5023775;28;20763;-72
2022/03/06 07:26:54;;;;;;;17.27;5.47;;;;;;;;;;5028106;28;20040;-73
2022/03/06 07:29:20;;;;;;;22.13;5.93;;;;;;;;;;5052323;28;20021;-73
2022/03/06 07:31:47;;;;;;;26.90;6.05;;;;;;;;;;5018569;28;20471;-73
2022/03/06 07:34:13;;;;;;;27.92;5.95;;;;;;;;;;5032413;28;20029;-73
2022/03/06 07:36:39;;;;;;;27.63;6.97;;;;;;;;;;5033221;28;20018;-72
2022/03/06 07:39:05;;;;;;;49.67;11.75;;;;;;;;;;5040770;28;20053;-73
2022/03/06 07:41:32;;;;;;;47.15;10.98;;;;;;;;;;5035972;28;20025;-72
2022/03/06 07:43:58;;;;;;;71.13;14.80;;;;;;;;;;5032202;28;20104;-72
2022/03/06 07:46:24;;;;;;;51.35;12.80;;;;;;;;;;5048878;28;20102;-72
2022/03/06 07:48:50;;;;;;;39.80;10.88;;;;;;;;;;5052258;28;20023;-73
2022/03/06 07:51:19;;;;;;;45.40;11.60;;;;;;;;;;5052191;28;20029;-72
2022/03/06 07:53:45;;;;;;;34.00;8.65;;;;;;;;;;5054334;28;20426;-72
2022/03/06 07:56:11;;;;;;;43.38;11.80;;;;;;;;;;5056310;28;20096;-72
2022/03/06 07:58:38;;;;;;;45.15;10.75;;;;;;;;;;5027837;28;20029;-72
2022/03/06 08:01:04;;;;;;;33.97;7.25;;;;;;;;;;5054632;28;20033;-72
2022/03/06 08:03:30;;;;;;;44.88;12.73;;;;;;;;;;5038807;28;20111;-72
2022/03/06 08:05:56;;;;;;;32.42;8.07;;;;;;;;;;5048788;28;20028;-71
2022/03/06 08:08:23;;;;;;;26.40;8.00;;;;;;;;;;5064549;28;20044;-72
2022/03/06 08:10:49;;;;;;;44.60;11.00;;;;;;;;;;5048322;28;20064;-72
2022/03/06 08:13:15;;;;;;;47.97;11.32;;;;;;;;;;5035758;28;20387;-73
2022/03/06 08:15:42;;;;;;;48.08;12.27;;;;;;;;;;5017925;28;20116;-73
2022/03/06 08:18:08;;;;;;;48.00;14.27;;;;;;;;;;5035742;28;20025;-73
2022/03/06 08:20:34;;;;;;;48.97;15.40;;;;;;;;;;5035566;28;20468;-72
2022/03/06 08:23:01;;;;;;;38.35;12.07;;;;;;;;;;5017424;28;20029;-73
2022/03/06 08:25:27;;;;;;;47.65;12.65;;;;;;;;;;5047492;28;20017;-73
2022/03/06 08:27:53;;;;;;;45.95;13.15;;;;;;;;;;5050895;28;20444;-74
2022/03/06 08:30:20;;;;;;;47.28;13.30;;;;;;;;;;5055191;28;20045;-73
2022/03/06 08:32:46;;;;;;;47.67;12.43;;;;;;;;;;5046680;28;20028;-73
2022/03/06 08:35:12;;;;;;;48.22;12.40;;;;;;;;;;5026801;28;20493;-72
2022/03/06 08:37:39;;;;;;;38.83;11.10;;;;;;;;;;5030910;28;20544;-73
2022/03/06 08:40:05;;;;;;;38.72;13.00;;;;;;;;;;5021350;28;20099;-73
2022/03/06 08:42:32;;;;;;;38.40;12.95;;;;;;;;;;5045556;28;20063;-73
2022/03/06 08:44:58;;;;;;;57.03;17.50;;;;;;;;;;5049892;28;20044;-72
2022/03/06 08:47:24;;;;;;;46.38;15.13;;;;;;;;;;5048990;28;20545;-72
2022/03/06 08:49:51;;;;;;;47.65;13.77;;;;;;;;;;5025644;28;20033;-72
2022/03/06 09:05:21;;;;;;;40.03;12.55;;;;;;;;;;5109847;27;20787;-77
2022/03/06 09:07:47;;;;;;;47.22;13.05;;;;;;;;;;5110110;28;20036;-75
2022/03/06 09:10:14;;;;;;;48.53;13.20;;;;;;;;;;5110386;28;20016;-75
2022/03/06 09:12:40;;;;;;;44.70;13.20;;;;;;;;;;5114311;28;20027;-76
2022/03/06 09:15:07;;;;;;;48.72;15.30;;;;;;;;;;5109478;28;20019;-75
2022/03/06 09:17:34;;;;;;;45.50;14.25;;;;;;;;;;5111775;28;20098;-76
2022/03/06 09:20:02;;;;;;;55.47;14.63;;;;;;;;;;5113799;28;20030;-76
2022/03/06 09:22:28;;;;;;;30.95;11.52;;;;;;;;;;5112468;28;20093;-77
2022/03/06 09:24:54;;;;;;;20.63;10.02;;;;;;;;;;5111506;28;20028;-76
2022/03/06 09:27:20;;;;;;;28.95;10.38;;;;;;;;;;5108486;28;20058;-76
2022/03/06 09:29:47;;;;;;;34.35;11.38;;;;;;;;;;5105662;28;20028;-75
2022/03/06 09:32:13;;;;;;;25.85;10.13;;;;;;;;;;5104190;28;20482;-76
2022/03/06 09:34:39;;;;;;;25.88;10.60;;;;;;;;;;5109112;28;20035;-77
2022/03/06 09:37:06;;;;;;;22.75;10.98;;;;;;;;;;5106451;28;20039;-77
2022/03/06 09:39:32;;;;;;;25.88;11.25;;;;;;;;;;5109036;28;20020;-76
2022/03/06 09:41:58;;;;;;;24.95;10.93;;;;;;;;;;5108606;28;20023;-76
2022/03/06 09:44:25;;;;;;;21.08;11.30;;;;;;;;;;5109743;28;20480;-75
2022/03/06 09:46:55;;;;;;;22.52;10.50;;;;;;;;;;5109298;28;20028;-76
2022/03/06 09:49:21;;;;;;;30.10;12.63;;;;;;;;;;5108661;28;20024;-76
2022/03/06 09:51:47;;;;;;;28.65;11.77;;;;;;;;;;5102764;28;20472;-74
2022/03/06 09:54:16;;;;;;;27.85;11.60;;;;;;;;;;5095105;28;20024;-77
2022/03/06 09:56:42;;;;;;;29.50;11.63;;;;;;;;;;5099439;28;20099;-76
2022/03/06 09:59:08;;;;;;;23.20;12.15;;;;;;;;;;5109532;28;20482;-76
2022/03/06 10:01:35;;;;;;;29.77;12.35;;;;;;;;;;5120786;28;20024;-76
2022/03/06 10:04:25;;;;;;;23.08;12.35;;;;;;;;;;5108217;28;20051;-77
2022/03/06 10:06:58;;;;;;;19.63;11.65;;;;;;;;;;5099522;28;20453;-76
2022/03/06 10:09:24;;;;;;;19.70;11.38;;;;;;;;;;5107771;28;20024;-77
2022/03/06 10:11:54;;;;;;;24.77;11.38;;;;;;;;;;5093080;28;20059;-76
2022/03/06 10:14:40;;;;;;;27.13;11.95;;;;;;;;;;5098760;28;20032;-77
2022/03/06 10:17:10;;;;;;;24.45;12.10;;;;;;;;;;5096297;28;20107;-76
2022/03/06 10:19:49;;;;;;;29.63;11.25;;;;;;;;;;5087972;28;20046;-76
2022/03/06 10:22:15;;;;;;;26.58;10.95;;;;;;;;;;5093826;28;20162;-77
2022/03/06 10:24:47;;;;;;;27.02;11.00;;;;;;;;;;5099210;28;20016;-77
2022/03/06 10:27:14;;;;;;;20.65;10.48;;;;;;;;;;5094672;28;20028;-76
2022/03/06 10:29:40;;;;;;;18.10;8.98;;;;;;;;;;5090484;28;20446;-76
2022/03/06 10:32:07;;;;;;;17.92;9.43;;;;;;;;;;5088886;28;20051;-77
2022/03/06 10:34:38;;;;;;;25.25;10.60;;;;;;;;;;5094397;28;20442;-76
2022/03/06 10:37:04;;;;;;;21.50;10.10;;;;;;;;;;5095067;28;20036;-77
2022/03/06 10:39:42;;;;;;;21.20;11.57;;;;;;;;;;5090084;28;20020;-77
2022/03/06 10:42:10;;;;;;;34.53;16.65;;;;;;;;;;5086855;28;20028;-76
2022/03/06 10:44:43;;;;;;;29.90;14.85;;;;;;;;;;5094051;28;20024;-76
2022/03/06 10:47:09;;;;;;;24.77;12.95;;;;;;;;;;5092512;28;20028;-76
2022/03/06 10:49:36;;;;;;;24.17;13.60;;;;;;;;;;5100512;28;20024;-76
2022/03/06 10:52:19;;;;;;;25.95;13.05;;;;;;;;;;5095559;28;20036;-77
2022/03/06 10:54:51;;;;;;;27.48;15.32;;;;;;;;;;5089052;28;20054;-76
2022/03/06 10:57:18;;;;;;;24.50;15.52;;;;;;;;;;5090230;28;20496;-77
2022/03/06 10:59:45;;;;;;;29.15;14.90;;;;;;;;;;5086706;28;20064;-77
2022/03/06 11:02:12;;;;;;;32.45;15.50;;;;;;;;;;5089869;28;20027;-77
2022/03/06 11:04:39;;;;;;;34.92;16.67;;;;;;;;;;5092581;28;20405;-77
2022/03/06 11:07:05;;;;;;;35.55;18.23;;;;;;;;;;5094413;28;20024;-77
2022/03/06 11:09:31;;;;;;;35.30;16.98;;;;;;;;;;5091086;28;20028;-76
2022/03/06 11:11:58;;;;;;;36.97;18.05;;;;;;;;;;5094280;28;20032;-76
2022/03/06 11:14:25;;;;;;;32.63;18.50;;;;;;;;;;5092561;28;20028;-76
2022/03/06 11:16:51;;;;;;;35.58;18.90;;;;;;;;;;5104563;28;20026;-76
2022/03/06 11:19:18;;;;;;;42.03;18.08;;;;;;;;;;5089708;28;20020;-76
2022/03/06 11:21:45;;;;;;;43.20;17.17;;;;;;;;;;5087406;28;20024;-77
2022/03/06 11:24:20;;;;;;;36.42;15.77;;;;;;;;;;5089134;28;20369;-77
2022/03/06 11:26:49;;;;;;;29.73;15.85;;;;;;;;;;5092442;28;20028;-77
2022/03/06 11:29:16;;;;;;;37.95;15.30;;;;;;;;;;5092174;28;20020;-77
2022/03/06 11:31:46;;;;;;;36.33;15.93;;;;;;;;;;5091232;28;20098;-77
2022/03/06 11:34:13;;;;;;;30.13;16.05;;;;;;;;;;5074294;28;20028;-77
2022/03/06 11:36:46;;;;;;;27.25;15.80;;;;;;;;;;5104123;28;20031;-77
2022/03/06 11:39:35;;;;;;;40.03;16.40;;;;;;;;;;5087052;28;20031;-77
2022/03/06 11:42:06;;;;;;;38.85;15.75;;;;;;;;;;5085289;28;20024;-77
2022/03/06 11:44:36;;;;;;;37.08;15.77;;;;;;;;;;5085311;28;20063;-76
2022/03/06 11:47:23;;;;;;;44.35;18.38;;;;;;;;;;5086108;28;20435;-76
2022/03/06 11:49:59;;;;;;;37.35;15.35;;;;;;;;;;5078658;28;20047;-76
2022/03/06 11:52:25;;;;;;;34.97;15.60;;;;;;;;;;5094319;28;20028;-77
2022/03/06 11:54:52;;;;;;;35.95;16.42;;;;;;;;;;5083876;28;20071;-77
2022/03/06 11:57:37;;;;;;;35.33;17.05;;;;;;;;;;5093348;28;20492;-76
2022/03/06 12:00:26;;;;;;;39.45;16.40;;;;;;;;;;5087300;28;20038;-76
2022/03/06 12:02:56;;;;;;;38.45;15.80;;;;;;;;;;5083357;28;20115;-76
2022/03/06 12:05:24;;;;;;;36.08;14.18;;;;;;;;;;5081896;28;20570;-75
2022/03/06 12:07:50;;;;;;;37.55;13.60;;;;;;;;;;5084416;28;20035;-76
2022/03/06 12:10:18;;;;;;;32.58;14.93;;;;;;;;;;5092962;28;20028;-78
2022/03/06 12:12:57;;;;;;;39.92;14.20;;;;;;;;;;5083089;28;20024;-77
2022/03/06 12:15:28;;;;;;;41.22;15.60;;;;;;;;;;5091733;28;20115;-77
2022/03/06 12:17:54;;;;;;;36.65;15.95;;;;;;;;;;5086810;28;20028;-77
2022/03/06 12:20:25;;;;;;;40.80;14.90;;;;;;;;;;5086925;28;20020;-77
2022/03/06 12:22:53;;;;;;;40.85;15.35;;;;;;;;;;5077280;28;20106;-77
2022/03/06 12:25:29;;;;;;;45.22;14.68;;;;;;;;;;5086887;28;20021;-76
2022/03/06 12:28:01;;;;;;;35.90;14.15;;;;;;;;;;5084643;28;20496;-77
2022/03/06 12:30:28;;;;;;;45.78;15.65;;;;;;;;;;5082094;28;20047;-76
2022/03/06 12:32:54;;;;;;;39.45;16.60;;;;;;;;;;5086774;28;20072;-77
2022/03/06 12:35:25;;;;;;;40.22;15.38;;;;;;;;;;5114947;27;20072;-77
2022/03/06 12:37:54;;;;;;;41.83;15.32;;;;;;;;;;5111610;28;20393;-76
2022/03/06 12:40:24;;;;;;;38.45;14.73;;;;;;;;;;5108451;27;20111;-78
2022/03/06 12:42:51;;;;;;;40.03;14.32;;;;;;;;;;5102987;28;20055;-77
2022/03/06 12:45:18;;;;;;;38.08;12.20;;;;;;;;;;5122258;27;20023;-76
2022/03/06 12:47:46;;;;;;;39.05;13.07;;;;;;;;;;5128640;27;20072;-76
2022/03/06 12:50:15;;;;;;;34.60;14.80;;;;;;;;;;5100055;28;20016;-78
2022/03/06 12:52:41;;;;;;;44.28;14.75;;;;;;;;;;5103229;28;20048;-77
2022/03/06 12:55:15;;;;;;;28.58;12.50;;;;;;;;;;5099975;28;20012;-76
2022/03/06 12:57:45;;;;;;;36.13;14.90;;;;;;;;;;5104485;28;20028;-76
2022/03/06 13:00:14;;;;;;;38.65;14.88;;;;;;;;;;5113445;28;20359;-77
2022/03/06 13:02:41;;;;;;;42.47;15.73;;;;;;;;;;5112558;28;20016;-77
2022/03/06 13:05:08;;;;;;;39.70;15.80;;;;;;;;;;5104757;28;20036;-76
2022/03/06 13:07:34;;;;;;;42.42;18.17;;;;;;;;;;5107337;28;20035;-76
2022/03/06 13:10:04;;;;;;;42.83;17.45;;;;;;;;;;5105796;28;20504;-76
2022/03/06 13:12:41;;;;;;;49.42;20.67;;;;;;;;;;5106666;28;20086;-76
2022/03/06 13:15:13;;;;;;;50.97;20.50;;;;;;;;;;5107973;28;20032;-77
2022/03/06 13:17:39;;;;;;;56.58;24.88;;;;;;;;;;5110891;28;20043;-77
2022/03/06 13:20:06;;;;;;;51.78;26.20;;;;;;;;;;5087173;28;20027;-75
2022/03/06 13:22:32;;;;;;;57.55;26.42;;;;;;;;;;5105724;28;20068;-78
2022/03/06 13:25:00;;;;;;;67.63;31.65;;;;;;;;;;5108207;28;20147;-76
2022/03/06 13:27:31;;;;;;;62.58;30.75;;;;;;;;;;5104565;28;20028;-77
2022/03/06 13:30:11;;;;;;;67.40;31.00;;;;;;;;;;5099885;28;20038;-76
2022/03/06 13:32:43;;;;;;;61.38;30.65;;;;;;;;;;5103834;28;20024;-77
2022/03/06 13:35:10;;;;;;;63.40;31.63;;;;;;;;;;5109494;28;20031;-77
2022/03/06 13:37:37;;;;;;;64.65;32.00;;;;;;;;;;5112701;28;20461;-77
2022/03/06 13:40:09;;;;;;;63.88;32.83;;;;;;;;;;5111722;28;20027;-77
2022/03/06 13:42:36;;;;;;;63.38;31.63;;;;;;;;;;5107944;28;20024;-76
2022/03/06 13:45:05;;;;;;;61.17;32.33;;;;;;;;;;5082884;28;20973;-77
2022/03/06 13:47:38;;;;;;;67.47;34.05;;;;;;;;;;5108373;27;20028;-77
2022/03/06 13:50:05;;;;;;;65.07;31.02;;;;;;;;;;5113010;28;20027;-76
2022/03/06 13:52:36;;;;;;;67.43;35.22;;;;;;;;;;5112485;28;20031;-77
2022/03/06 13:55:03;;;;;;;66.22;35.42;;;;;;;;;;5108994;28;20055;-77
2022/03/06 13:57:29;;;;;;;65.90;35.35;;;;;;;;;;5092011;27;20616;-76
2022/03/06 13:59:56;;;;;;;61.13;32.58;;;;;;;;;;5111442;28;20497;-76
2022/03/06 14:02:25;;;;;;;66.57;32.80;;;;;;;;;;5111379;28;20528;-77
2022/03/06 14:04:51;;;;;;;68.60;33.95;;;;;;;;;;5114206;27;20051;-76
2022/03/06 14:07:24;;;;;;;75.57;35.05;;;;;;;;;;5115125;27;20032;-76
2022/03/06 14:09:50;;;;;;;71.50;34.90;;;;;;;;;;5113252;28;20027;-76
2022/03/06 14:12:17;;;;;;;61.28;33.35;;;;;;;;;;5115963;28;20031;-77
2022/03/06 14:14:45;;;;;;;70.03;36.88;;;;;;;;;;5116400;28;20081;-77
2022/03/06 14:17:14;;;;;;;65.78;34.03;;;;;;;;;;5115577;28;20107;-76
2022/03/06 14:19:42;;;;;;;76.28;36.75;;;;;;;;;;5103484;28;20029;-76
2022/03/06 14:22:16;;;;;;;77.05;36.67;;;;;;;;;;5111920;28;20047;-77
2022/03/06 14:24:42;;;;;;;79.22;39.83;;;;;;;;;;5115838;28;20020;-76
2022/03/06 14:27:09;;;;;;;69.80;37.80;;;;;;;;;;5115177;28;20061;-75
2022/03/06 14:29:35;;;;;;;73.65;38.63;;;;;;;;;;5113398;28;20102;-76
2022/03/06 14:32:01;;;;;;;73.75;36.33;;;;;;;;;;5111146;28;20024;-77
2022/03/06 14:34:33;;;;;;;82.93;41.05;;;;;;;;;;5113204;28;20027;-76
2022/03/06 14:37:00;;;;;;;83.93;39.05;;;;;;;;;;5114077;27;20016;-76
2022/03/06 14:39:26;;;;;;;71.93;35.92;;;;;;;;;;5114527;28;20020;-76
2022/03/06 14:41:54;;;;;;;74.18;38.83;;;;;;;;;;5111678;28;20065;-76
2022/03/06 14:44:20;;;;;;;83.35;41.80;;;;;;;;;;5112232;28;20024;-77
2022/03/06 14:46:48;;;;;;;77.97;38.25;;;;;;;;;;5091400;28;20493;-77
2022/03/06 14:49:15;;;;;;;85.32;37.97;;;;;;;;;;5114493;28;20035;-76
2022/03/06 14:51:42;;;;;;;76.82;38.63;;;;;;;;;;5112267;28;20114;-77